Latest Weather Observations for Cape Willoughby

IDS60801

Issued at 5:05 pm CDT Saturday 25 October 2014 (issued every 30 minutes, with the page automatically refreshed every 10 minutes)

About weather observations | Map of weather stations | Latest weather observations for SA | Other Formats
Station Details ID: 022803 Name: CAPE WILLOUGHBY Lat: -35.84 Lon: 138.13 Height: 55.0 m
Data from the previous 72 hours. | See also: Recent months at Cape Willoughby
Date/Time
CDT
Temp
°C
App
Temp
°C
Dew
Point
Rel
Hum
%
Delta-T
°C
Wind Press
QNH
hPa
Press
MSL
hPa
Rain
since 9 am
mm
Dir
 
Spd
km/h
Gust
km/h
Spd
kts
Gust
kts
25/05:00pm 15.4 13.6 12.0 80 1.8 SSE 13 19 7 10 1016.4 1016.4 0.0
25/04:30pm 15.7 13.1 11.9 78 2.1 SSE 17 22 9 12 1016.4 1016.4 0.0
25/04:00pm 15.8 14.0 12.0 78 2.1 SSE 13 17 7 9 1016.4 1016.4 0.0
25/03:30pm 16.2 14.4 12.2 77 2.2 S 13 17 7 9 1016.5 1016.5 0.0
25/03:00pm 16.5 14.9 12.8 79 2.1 S 13 19 7 10 1016.6 1016.6 0.0
25/02:30pm 16.4 13.9 12.2 76 2.3 S 17 22 9 12 1016.9 1016.9 0.0
25/02:00pm 16.5 13.6 12.3 76 2.3 S 19 24 10 13 1017.0 1017.0 0.0
25/01:30pm 16.5 14.5 12.8 79 2.1 S 15 19 8 10 1017.2 1017.2 0.0
25/01:00pm 16.3 14.8 11.9 75 2.4 SSE 11 15 6 8 1017.3 1017.3 0.0
25/12:30pm 16.5 14.7 12.1 75 2.4 S 13 17 7 9 1017.5 1017.5 0.0
25/12:00pm 16.3 14.5 12.1 76 2.3 S 13 17 7 9 1017.7 1017.7 0.0
25/11:30am 16.0 14.7 12.4 79 2.0 S 11 15 6 8 1018.0 1018.0 0.0
25/11:00am 16.3 15.7 12.3 77 2.2 SSE 7 11 4 6 1018.0 1018.0 0.0
25/10:30am 16.8 15.8 12.3 75 2.5 SE 9 13 5 7 1018.1 1018.1 0.0
25/10:00am 15.7 14.0 12.5 81 1.8 SE 13 17 7 9 1018.2 1018.2 0.0
25/09:30am 15.1 13.4 12.4 84 1.5 SE 13 15 7 8 1018.2 1018.2 0.0
25/09:00am 14.9 14.3 12.2 84 1.5 SSE 7 11 4 6 1018.3 1018.3 0.0
25/08:30am 14.9 13.6 12.4 85 1.4 SE 11 15 6 8 1018.1 1018.1 0.0
25/08:00am 14.4 12.1 11.9 85 1.4 SE 15 17 8 9 1018.1 1018.1 0.0
25/07:30am 14.4 12.2 12.1 86 1.2 SSE 15 19 8 10 1017.8 1017.8 0.0
25/07:00am 14.4 12.2 12.1 86 1.2 SE 15 20 8 11 1017.3 1017.3 0.0
25/06:30am 14.3 12.1 12.0 86 1.2 SE 15 20 8 11 1017.0 1017.0 0.0
25/06:00am 14.4 12.7 12.3 87 1.1 SE 13 19 7 10 1016.7 1016.7 0.0
25/05:30am 14.2 12.0 12.1 87 1.1 ESE 15 20 8 11 1016.4 1016.4 0.0
25/05:00am 14.3 11.8 12.2 87 1.1 ESE 17 24 9 13 1016.3 1016.3 0.0
25/04:30am 14.5 11.6 12.4 87 1.1 ESE 19 22 10 12 1016.0 1016.0 0.0
25/04:00am 14.5 11.6 12.2 86 1.3 ESE 19 22 10 12 1015.9 1015.9 0.0
25/03:30am 14.7 11.9 12.6 87 1.2 ESE 19 24 10 13 1015.8 1015.8 0.0
25/03:00am 14.7 11.7 12.6 87 1.2 ESE 20 26 11 14 1015.9 1015.9 0.0
25/02:30am 14.6 11.6 12.5 87 1.1 SE 20 26 11 14 1015.8 1015.8 0.0
25/02:00am 14.8 11.5 12.8 88 1.1 SE 22 28 12 15 1015.9 1015.9 0.0
25/01:30am 14.8 12.0 13.2 90 0.9 SE 20 26 11 14 1016.1 1016.1 0.0
25/01:00am 14.8 12.0 13.3 91 0.8 SE 20 24 11 13 1016.5 1016.5 0.0
25/12:30am 14.7 12.1 13.1 90 0.9 SE 19 20 10 11 1016.8 1016.8 0.0
25/12:00am 14.7 12.4 13.1 90 0.9 SE 17 20 9 11 1016.8 1016.8 0.0
 
Date/Time
CDT
Temp
°C
App
Temp
°C
Dew
Point
Rel
Hum
%
Delta-T
°C
Wind Press
QNH
hPa
Press
MSL
hPa
Rain
since 9 am
mm
Dir
 
Spd
km/h
Gust
km/h
Spd
kts
Gust
kts
24/11:30pm 14.8 12.6 13.2 90 0.9 SSE 17 20 9 11 1017.0 1017.0 0.0
24/11:00pm 14.9 12.3 13.3 90 0.9 SSE 19 22 10 12 1016.9 1016.9 0.0
24/10:30pm 15.0 12.5 13.4 90 0.9 SSE 19 22 10 12 1016.8 1016.8 0.0
24/10:00pm 15.0 12.4 13.2 89 1.0 SSE 19 24 10 13 1016.6 1016.6 0.0
24/09:30pm 15.0 12.5 13.4 90 0.9 SSE 19 22 10 12 1016.4 1016.4 0.0
24/09:00pm 14.9 12.1 13.3 90 0.9 S 20 28 11 15 1016.0 1016.0 0.0
24/08:30pm 15.0 11.5 13.4 90 0.9 S 24 30 13 16 1015.7 1015.7 0.0
24/08:00pm 14.9 11.4 13.3 90 0.9 S 24 28 13 15 1015.5 1015.5 0.0
24/07:30pm 15.1 11.3 13.5 90 0.9 S 26 33 14 18 1015.2 1015.2 0.0
24/07:00pm 15.3 11.5 13.5 89 1.0 S 26 32 14 17 1014.8 1014.8 0.0
24/06:30pm 15.5 11.4 13.7 89 1.0 S 28 35 15 19 1014.2 1014.2 0.0
24/06:00pm 15.9 13.0 13.9 88 1.1 S 22 35 12 19 1014.1 1014.1 0.0
24/05:30pm 16.8 14.5 14.6 87 1.3 SSW 20 30 11 16 1014.1 1014.1 0.0
24/05:00pm 17.8 14.8 14.9 83 1.7 SSW 24 30 13 16 1013.9 1013.9 0.0
24/04:30pm 17.7 15.1 15.0 84 1.6 SSW 22 28 12 15 1014.0 1014.0 0.0
24/04:00pm 18.6 15.5 14.5 77 2.4 SSW 24 30 13 16 1013.6 1013.6 0.0
24/03:30pm 19.5 17.3 14.3 72 3.0 SSW 19 26 10 14 1013.7 1013.7 0.0
24/03:00pm 19.6 18.5 15.3 76 2.5 S 15 24 8 13 1013.9 1013.9 0.0
24/02:30pm 22.6 21.1 15.4 64 4.3 SW 17 22 9 12 1013.9 1013.9 0.0
24/02:00pm 23.1 23.1 15.2 61 4.7 WNW 9 19 5 10 1013.6 1013.6 0.0
24/01:30pm 20.8 16.6 13.5 63 4.2 NNW 28 33 15 18 1013.6 1013.6 0.0
24/01:00pm 22.1 18.6 14.5 62 4.5 NNW 26 32 14 17 1013.5 1013.5 0.0
24/12:30pm 21.8 18.1 14.9 65 4.1 NNW 28 33 15 18 1013.6 1013.6 0.0
24/12:00pm 21.4 18.3 15.5 69 3.5 N 26 32 14 17 1013.7 1013.7 0.0
24/11:30am 21.0 17.4 15.3 70 3.4 NNW 28 32 15 17 1013.9 1013.9 0.0
24/11:00am 20.4 16.5 15.4 73 3.0 NNW 30 35 16 19 1014.1 1014.1 0.0
24/10:30am 19.4 15.4 15.1 76 2.5 NNW 30 35 16 19 1014.2 1014.2 0.0
24/10:00am 19.2 16.5 14.5 74 2.7 NNW 22 32 12 17 1014.5 1014.5 0.0
24/09:30am 18.8 16.2 14.9 78 2.3 NNW 22 28 12 15 1014.5 1014.5 0.0
24/09:00am 17.5 15.3 14.4 82 1.8 NNW 19 24 10 13 1014.0 1014.0 -
24/08:30am 16.5 14.6 14.2 86 1.3 NNW 17 24 9 13 1013.8 1013.8 -
24/08:00am 15.1 14.3 13.0 87 1.2 NNW 9 19 5 10 1013.7 1013.7 -
24/07:30am 14.9 14.5 12.9 88 1.1 NW 7 15 4 8 1014.1 1014.1 -
24/07:00am 14.5 13.3 12.9 90 0.9 NNW 11 19 6 10 1013.5 1013.5 -
24/06:30am 14.8 11.4 13.7 93 0.6 NNW 24 39 13 21 1013.0 1013.0 -
24/06:00am 13.9 10.6 12.8 93 0.6 NNW 22 32 12 17 1012.5 1012.5 -
24/05:30am 12.9 11.1 12.1 95 0.4 NNW 13 20 7 11 1012.2 1012.2 -
24/05:00am 12.5 11.7 11.6 94 0.5 N 7 9 4 5 1011.6 1011.6 -
24/04:30am 12.6 13.0 11.3 92 0.7 CALM 0 0 0 0 1011.6 1011.6 0.0
24/04:00am 12.9 13.4 11.6 92 0.7 CALM 0 0 0 0 1011.8 1011.8 0.0
24/03:30am 12.5 12.5 11.2 92 0.7 NW 2 4 1 2 1012.4 1012.4 0.0
24/03:00am 12.2 11.4 10.9 92 0.7 NNW 6 7 3 4 1013.0 1013.0 0.0
24/02:30am 12.2 11.3 10.8 91 0.7 WNW 6 7 3 4 1013.4 1013.4 0.0
24/02:00am 12.8 12.4 11.2 90 0.8 S 4 6 2 3 1013.6 1013.6 0.0
24/01:30am 13.2 13.3 11.4 89 1.0 ESE 2 4 1 2 1014.1 1014.1 0.0
24/01:00am 13.3 13.8 11.5 89 1.0 CALM 0 0 0 0 1014.4 1014.4 0.0
24/12:30am 13.4 12.8 11.6 89 1.0 S 6 11 3 6 1014.6 1014.6 0.0
24/12:00am 13.5 13.2 11.6 88 1.0 SSW 4 9 2 5 1015.5 1015.5 0.0
 
Date/Time
CDT
Temp
°C
App
Temp
°C
Dew
Point
Rel
Hum
%
Delta-T
°C
Wind Press
QNH
hPa
Press
MSL
hPa
Rain
since 9 am
mm
Dir
 
Spd
km/h
Gust
km/h
Spd
kts
Gust
kts
23/11:30pm 13.6 12.8 11.7 88 1.0 SW 7 13 4 7 1015.6 1015.6 0.0
23/11:00pm 13.5 12.7 11.7 89 1.0 S 7 13 4 7 1015.8 1015.8 0.0
23/10:30pm 13.7 12.6 11.9 89 1.0 S 9 15 5 8 1015.8 1015.8 0.0
23/10:00pm 13.6 11.7 11.7 88 1.0 S 13 19 7 10 1015.7 1015.7 0.0
23/09:30pm 13.9 12.8 11.9 88 1.1 S 9 15 5 8 1015.7 1015.7 0.0
23/09:00pm 13.9 12.8 11.9 88 1.1 SSE 9 13 5 7 1015.9 1015.9 0.0
23/08:30pm 14.1 13.0 12.1 88 1.1 S 9 15 5 8 1015.9 1015.9 0.0
23/08:00pm 14.0 13.3 11.9 87 1.1 SSE 7 9 4 5 1015.9 1015.9 0.0
23/07:30pm 14.2 12.7 11.9 86 1.2 S 11 17 6 9 1015.6 1015.6 0.0
23/07:00pm 14.3 12.5 12.0 86 1.2 S 13 19 7 10 1015.6 1015.6 0.0
23/06:30pm 14.3 12.0 11.8 85 1.3 SSE 15 22 8 12 1015.2 1015.2 0.0
23/06:00pm 14.4 11.1 11.7 84 1.5 S 20 26 11 14 1015.6 1015.6 0.0
23/05:30pm 14.7 11.7 12.0 84 1.5 S 19 26 10 14 1015.4 1015.4 0.0
23/05:00pm 14.6 12.0 11.9 84 1.5 SSE 17 22 9 12 1015.4 1015.4 0.0
23/04:30pm 14.8 11.8 11.8 82 1.6 S 19 24 10 13 1015.3 1015.3 0.0
23/04:00pm 15.1 11.8 11.7 80 1.8 S 20 28 11 15 1015.5 1015.5 0.0
23/03:30pm 14.8 11.8 11.8 82 1.6 SSE 19 26 10 14 1015.8 1015.8 0.0
23/03:00pm 15.4 13.6 12.0 80 1.8 SSE 13 17 7 9 1016.2 1016.2 0.0
23/02:30pm 14.9 12.5 11.5 80 1.8 SSE 15 22 8 12 1016.5 1016.5 0.0
23/02:00pm 15.2 12.7 12.2 82 1.6 SSE 17 20 9 11 1016.8 1016.8 0.0
23/01:30pm 15.1 13.3 12.1 82 1.6 SSE 13 19 7 10 1017.2 1017.2 0.0
23/01:00pm 15.2 12.6 12.0 81 1.7 SE 17 22 9 12 1017.5 1017.5 0.0
23/12:30pm 15.2 12.1 12.2 82 1.6 SE 20 26 11 14 1017.7 1017.7 0.0
23/12:00pm 15.1 11.6 12.1 82 1.6 SE 22 30 12 16 1018.0 1018.0 0.0
23/11:30am 15.0 11.4 11.8 81 1.7 SE 22 28 12 15 1018.2 1018.2 0.0
23/11:00am 14.8 10.5 11.9 83 1.6 SE 26 32 14 17 1018.5 1018.5 0.0
23/10:30am 14.5 10.3 12.4 87 1.1 SE 26 33 14 18 1018.6 1018.6 0.0
23/10:00am 14.5 9.9 12.2 86 1.3 SE 28 35 15 19 1018.9 1018.9 0.0
23/09:30am 14.4 9.7 11.9 85 1.3 SE 28 33 15 18 1019.0 1019.0 0.0
23/09:00am 14.2 9.5 11.9 86 1.2 SE 28 35 15 19 1019.1 1019.1 0.0
23/08:30am 13.9 8.7 11.6 86 1.2 SE 30 39 16 21 1019.3 1019.3 0.0
23/08:00am 14.0 8.9 11.9 87 1.1 SE 30 39 16 21 1019.1 1019.1 0.0
23/07:30am 13.6 9.6 11.7 88 1.0 SE 24 30 13 16 1019.4 1019.4 0.0
23/07:00am 13.5 7.7 11.6 88 1.0 SE 33 43 18 23 1019.3 1019.3 0.0
23/06:30am 13.4 8.1 11.3 87 1.1 SSE 30 37 16 20 1019.1 1019.1 0.0
23/06:00am 13.6 8.8 11.8 89 1.0 SE 28 37 15 20 1019.1 1019.1 0.0
23/05:30am 14.0 8.9 12.0 88 1.1 SSE 30 41 16 22 1018.9 1018.9 0.0
23/05:00am 13.9 8.2 11.8 87 1.1 SE 33 39 18 21 1019.1 1019.1 0.0
23/04:30am 14.0 8.5 12.0 88 1.1 SE 32 37 17 20 1018.7 1018.7 0.0
23/04:00am 14.0 8.9 12.0 88 1.1 SSE 30 37 16 20 1019.0 1019.0 0.0
23/03:30am 14.1 9.0 12.0 87 1.1 SSE 30 39 16 21 1019.1 1019.1 0.0
23/03:00am 14.0 8.6 12.2 89 1.0 SSE 32 39 17 21 1019.2 1019.2 0.0
23/02:30am 14.3 9.4 12.7 90 0.9 SSE 30 37 16 20 1019.3 1019.3 0.0
23/02:00am 14.0 9.4 12.2 89 1.0 SSE 28 37 15 20 1019.7 1019.7 0.0
23/01:30am 13.8 9.2 12.2 90 0.9 SSE 28 35 15 19 1020.3 1020.2 0.0
23/01:00am 13.7 9.0 12.1 90 0.9 SSE 28 39 15 21 1020.5 1020.4 0.0
23/12:30am 14.0 9.9 12.6 91 0.8 SSE 26 37 14 20 1020.7 1020.6 0.0
23/12:00am 13.8 8.8 12.2 90 0.9 SSE 30 41 16 22 1020.7 1020.6 0.0
 
Date/Time
CDT
Temp
°C
App
Temp
°C
Dew
Point
Rel
Hum
%
Delta-T
°C
Wind Press
QNH
hPa
Press
MSL
hPa
Rain
since 9 am
mm
Dir
 
Spd
km/h
Gust
km/h
Spd
kts
Gust
kts
22/11:30pm 13.8 7.8 12.2 90 0.9 SSE 35 44 19 24 1021.1 1021.0 0.0
22/11:00pm 13.7 8.3 12.1 90 0.9 SSE 32 43 17 23 1021.0 1020.9 0.0
22/10:30pm 14.2 9.4 12.9 92 0.7 SSE 30 37 16 20 1021.4 1021.3 0.0
22/10:00pm 13.9 8.6 12.5 91 0.8 SSE 32 41 17 22 1021.2 1021.1 0.0
22/09:30pm 14.0 9.1 12.4 90 0.9 SSE 30 41 16 22 1021.1 1021.0 0.0
22/09:00pm 14.1 9.2 12.7 91 0.8 SSE 30 41 16 22 1020.7 1020.6 0.0
22/08:30pm 14.2 9.3 12.6 90 0.9 SSE 30 43 16 23 1020.5 1020.4 0.0
22/08:00pm 14.2 8.7 12.4 89 1.0 SSE 33 41 18 22 1019.8 1019.8 0.0
22/07:30pm 14.3 8.5 12.7 90 0.9 S 35 46 19 25 1019.7 1019.7 0.0
22/07:00pm 14.4 7.9 12.8 90 0.9 S 39 46 21 25 1019.3 1019.3 0.0
22/06:30pm 14.6 8.5 13.0 90 0.9 S 37 46 20 25 1019.1 1019.1 0.0
22/06:00pm 14.4 8.6 12.8 90 0.9 S 35 44 19 24 1019.1 1019.1 0.0
22/05:30pm 14.5 9.2 13.0 91 0.8 S 33 43 18 23 1019.0 1019.0 0.0

Other Formats:

Comma delimited format used in spreadsheet applications
http://www.bom.gov.au/fwo/IDS60801/IDS60801.94822.axf

JavaScript Object Notation format (JSON) in row-major order
http://www.bom.gov.au/fwo/IDS60801/IDS60801.94822.json